sensor_id;sensor_type;location;lat;lon;timestamp;pressure;altitude;pressure_sealevel;temperature;humidity
28310;BME280;15571;50.974;13.936;2023-04-22T00:00:56;99952.84;;;10.37;100.00
28310;BME280;15571;50.974;13.936;2023-04-22T00:04:00;99959.00;;;10.31;100.00
28310;BME280;15571;50.974;13.936;2023-04-22T00:07:05;99962.53;;;10.27;100.00
28310;BME280;15571;50.974;13.936;2023-04-22T00:10:11;99956.47;;;10.22;100.00
28310;BME280;15571;50.974;13.936;2023-04-22T00:13:18;99953.03;;;10.13;100.00
28310;BME280;15571;50.974;13.936;2023-04-22T00:16:22;99950.53;;;10.03;100.00
28310;BME280;15571;50.974;13.936;2023-04-22T00:19:27;99953.16;;;9.96;100.00
28310;BME280;15571;50.974;13.936;2023-04-22T00:22:37;99943.59;;;9.94;100.00
28310;BME280;15571;50.974;13.936;2023-04-22T00:25:42;99942.78;;;9.87;100.00
28310;BME280;15571;50.974;13.936;2023-04-22T00:28:48;99941.94;;;9.80;100.00
28310;BME280;15571;50.974;13.936;2023-04-22T00:31:51;99940.25;;;9.73;100.00
28310;BME280;15571;50.974;13.936;2023-04-22T00:34:58;99935.97;;;9.64;100.00
28310;BME280;15571;50.974;13.936;2023-04-22T00:38:06;99929.88;;;9.61;100.00
28310;BME280;15571;50.974;13.936;2023-04-22T00:41:16;99934.22;;;9.62;100.00
28310;BME280;15571;50.974;13.936;2023-04-22T00:44:23;99926.38;;;9.62;100.00
28310;BME280;15571;50.974;13.936;2023-04-22T00:47:34;99931.63;;;9.62;100.00
28310;BME280;15571;50.974;13.936;2023-04-22T00:50:43;99929.00;;;9.62;100.00
28310;BME280;15571;50.974;13.936;2023-04-22T00:53:48;99928.16;;;9.55;100.00
28310;BME280;15571;50.974;13.936;2023-04-22T00:56:54;99923.00;;;9.44;100.00
28310;BME280;15571;50.974;13.936;2023-04-22T00:59:58;99921.31;;;9.35;100.00
28310;BME280;15571;50.974;13.936;2023-04-22T01:03:07;99922.22;;;9.31;100.00
28310;BME280;15571;50.974;13.936;2023-04-22T01:06:13;99922.22;;;9.28;100.00
28310;BME280;15571;50.974;13.936;2023-04-22T01:09:17;99918.78;;;9.23;100.00
28310;BME280;15571;50.974;13.936;2023-04-22T01:12:22;99924.00;;;9.22;100.00
28310;BME280;15571;50.974;13.936;2023-04-22T01:15:25;99926.63;;;9.20;100.00
28310;BME280;15571;50.974;13.936;2023-04-22T01:18:28;99921.41;;;9.18;100.00
28310;BME280;15571;50.974;13.936;2023-04-22T01:21:33;99918.81;;;9.11;100.00
28310;BME280;15571;50.974;13.936;2023-04-22T01:24:39;99918.84;;;9.08;100.00
28310;BME280;15571;50.974;13.936;2023-04-22T01:27:44;99920.59;;;9.06;100.00
28310;BME280;15571;50.974;13.936;2023-04-22T01:30:49;99922.34;;;8.97;100.00
28310;BME280;15571;50.974;13.936;2023-04-22T01:33:53;99912.84;;;8.85;100.00
28310;BME280;15571;50.974;13.936;2023-04-22T01:37:01;99912.88;;;8.79;100.00
28310;BME280;15571;50.974;13.936;2023-04-22T01:40:10;99920.69;;;8.79;100.00
28310;BME280;15571;50.974;13.936;2023-04-22T01:43:13;99928.53;;;8.79;100.00
28310;BME280;15571;50.974;13.936;2023-04-22T01:46:18;99916.34;;;8.81;100.00
28310;BME280;15571;50.974;13.936;2023-04-22T01:49:24;99916.34;;;8.78;100.00
28310;BME280;15571;50.974;13.936;2023-04-22T01:52:32;99920.72;;;8.65;100.00
28310;BME280;15571;50.974;13.936;2023-04-22T01:55:41;99918.13;;;8.65;100.00
28310;BME280;15571;50.974;13.936;2023-04-22T01:58:57;99915.50;;;8.67;100.00
28310;BME280;15571;50.974;13.936;2023-04-22T02:02:04;99912.00;;;8.69;100.00
28310;BME280;15571;50.974;13.936;2023-04-22T02:05:08;99915.50;;;8.75;100.00
28310;BME280;15571;50.974;13.936;2023-04-22T02:08:13;99912.84;;;8.81;100.00
28310;BME280;15571;50.974;13.936;2023-04-22T02:11:21;99905.00;;;8.82;100.00
28310;BME280;15571;50.974;13.936;2023-04-22T02:14:27;99901.53;;;8.79;100.00
28310;BME280;15571;50.974;13.936;2023-04-22T02:17:36;99895.50;;;8.66;100.00
28310;BME280;15571;50.974;13.936;2023-04-22T02:20:42;99907.66;;;8.67;100.00
28310;BME280;15571;50.974;13.936;2023-04-22T02:24:00;99908.53;;;8.69;100.00
28310;BME280;15571;50.974;13.936;2023-04-22T02:27:05;99900.69;;;8.70;100.00
28310;BME280;15571;50.974;13.936;2023-04-22T02:30:10;99895.53;;;8.60;100.00
28310;BME280;15571;50.974;13.936;2023-04-22T02:33:22;99899.91;;;8.51;100.00
28310;BME280;15571;50.974;13.936;2023-04-22T02:36:32;99895.53;;;8.41;100.00
28310;BME280;15571;50.974;13.936;2023-04-22T02:39:41;99894.69;;;8.37;100.00
28310;BME280;15571;50.974;13.936;2023-04-22T02:42:45;99895.53;;;8.35;100.00
28310;BME280;15571;50.974;13.936;2023-04-22T02:45:48;99893.78;;;8.34;100.00
28310;BME280;15571;50.974;13.936;2023-04-22T02:48:57;99885.13;;;8.29;100.00
28310;BME280;15571;50.974;13.936;2023-04-22T02:52:03;99888.63;;;8.21;100.00
28310;BME280;15571;50.974;13.936;2023-04-22T02:55:07;99888.63;;;8.12;100.00
28310;BME280;15571;50.974;13.936;2023-04-22T02:58:11;99889.47;;;8.05;100.00
28310;BME280;15571;50.974;13.936;2023-04-22T03:01:15;99886.00;;;8.01;100.00
28310;BME280;15571;50.974;13.936;2023-04-22T03:04:21;99891.22;;;8.01;100.00
28310;BME280;15571;50.974;13.936;2023-04-22T03:07:39;99880.81;;;8.04;100.00
28310;BME280;15571;50.974;13.936;2023-04-22T03:10:51;99881.66;;;8.05;100.00
28310;BME280;15571;50.974;13.936;2023-04-22T03:14:06;99880.78;;;8.01;100.00
28310;BME280;15571;50.974;13.936;2023-04-22T03:17:13;99883.41;;;7.93;100.00
28310;BME280;15571;50.974;13.936;2023-04-22T03:20:17;99871.25;;;7.83;100.00
28310;BME280;15571;50.974;13.936;2023-04-22T03:23:19;99870.38;;;7.76;100.00
28310;BME280;15571;50.974;13.936;2023-04-22T03:26:30;99872.13;;;7.77;100.00
28310;BME280;15571;50.974;13.936;2023-04-22T03:29:35;99866.03;;;7.77;100.00
28310;BME280;15571;50.974;13.936;2023-04-22T03:32:42;99866.91;;;7.73;100.00
28310;BME280;15571;50.974;13.936;2023-04-22T03:36:10;99865.16;;;7.72;100.00
28310;BME280;15571;50.974;13.936;2023-04-22T03:39:19;99870.38;;;7.76;100.00
28310;BME280;15571;50.974;13.936;2023-04-22T03:42:26;99861.69;;;7.81;100.00
28310;BME280;15571;50.974;13.936;2023-04-22T03:45:36;99869.50;;;7.85;100.00
28310;BME280;15571;50.974;13.936;2023-04-22T03:48:50;99863.41;;;7.91;100.00
28310;BME280;15571;50.974;13.936;2023-04-22T03:52:08;99862.56;;;7.92;100.00
28310;BME280;15571;50.974;13.936;2023-04-22T03:55:14;99860.84;;;7.88;100.00
28310;BME280;15571;50.974;13.936;2023-04-22T03:58:22;99860.81;;;7.86;100.00
28310;BME280;15571;50.974;13.936;2023-04-22T04:01:28;99861.69;;;7.84;100.00
28310;BME280;15571;50.974;13.936;2023-04-22T04:04:35;99863.41;;;7.86;100.00
28310;BME280;15571;50.974;13.936;2023-04-22T04:07:40;99855.63;;;7.88;100.00
28310;BME280;15571;50.974;13.936;2023-04-22T04:10:51;99859.09;;;7.91;100.00
28310;BME280;15571;50.974;13.936;2023-04-22T04:13:58;99849.53;;;7.97;100.00
28310;BME280;15571;50.974;13.936;2023-04-22T04:17:10;99842.56;;;8.02;100.00
28310;BME280;15571;50.974;13.936;2023-04-22T04:20:15;99840.84;;;8.05;100.00
28310;BME280;15571;50.974;13.936;2023-04-22T04:23:26;99843.44;;;8.10;100.00
28310;BME280;15571;50.974;13.936;2023-04-22T04:26:29;99842.56;;;8.16;100.00
28310;BME280;15571;50.974;13.936;2023-04-22T04:29:43;99852.09;;;8.21;100.00
28310;BME280;15571;50.974;13.936;2023-04-22T04:32:57;99845.13;;;8.30;100.00
28310;BME280;15571;50.974;13.936;2023-04-22T04:36:00;99853.81;;;8.35;100.00
28310;BME280;15571;50.974;13.936;2023-04-22T04:39:12;99861.63;;;8.39;100.00
28310;BME280;15571;50.974;13.936;2023-04-22T04:42:20;99858.16;;;8.42;100.00
28310;BME280;15571;50.974;13.936;2023-04-22T04:45:33;99860.72;;;8.45;100.00
28310;BME280;15571;50.974;13.936;2023-04-22T04:48:53;99861.63;;;8.47;100.00
28310;BME280;15571;50.974;13.936;2023-04-22T04:52:02;99853.81;;;8.50;100.00
28310;BME280;15571;50.974;13.936;2023-04-22T04:55:04;99858.16;;;8.53;100.00
28310;BME280;15571;50.974;13.936;2023-04-22T04:58:11;99859.00;;;8.56;100.00
28310;BME280;15571;50.974;13.936;2023-04-22T05:01:19;99858.13;;;8.61;100.00
28310;BME280;15571;50.974;13.936;2023-04-22T05:04:25;99859.84;;;8.65;100.00
28310;BME280;15571;50.974;13.936;2023-04-22T05:07:32;99854.63;;;8.68;100.00
28310;BME280;15571;50.974;13.936;2023-04-22T05:10:45;99857.22;;;8.71;100.00
28310;BME280;15571;50.974;13.936;2023-04-22T05:13:59;99854.59;;;8.74;100.00
28310;BME280;15571;50.974;13.936;2023-04-22T05:17:11;99860.66;;;8.79;100.00
28310;BME280;15571;50.974;13.936;2023-04-22T05:20:15;99858.88;;;8.84;100.00
28310;BME280;15571;50.974;13.936;2023-04-22T05:23:23;99858.88;;;8.91;100.00
28310;BME280;15571;50.974;13.936;2023-04-22T05:26:31;99853.63;;;8.97;100.00
28310;BME280;15571;50.974;13.936;2023-04-22T05:29:41;99863.16;;;9.04;100.00
28310;BME280;15571;50.974;13.936;2023-04-22T05:32:48;99874.41;;;9.12;100.00
28310;BME280;15571;50.974;13.936;2023-04-22T05:35:53;99870.06;;;9.21;100.00
28310;BME280;15571;50.974;13.936;2023-04-22T05:38:58;99868.25;;;9.29;100.00
28310;BME280;15571;50.974;13.936;2023-04-22T05:42:02;99867.34;;;9.36;100.00
28310;BME280;15571;50.974;13.936;2023-04-22T05:45:12;99868.16;;;9.43;100.00
28310;BME280;15571;50.974;13.936;2023-04-22T05:48:22;99875.94;;;9.54;100.00
28310;BME280;15571;50.974;13.936;2023-04-22T05:51:40;99871.50;;;9.62;100.00
28310;BME280;15571;50.974;13.936;2023-04-22T05:54:48;99867.09;;;9.70;100.00
28310;BME280;15571;50.974;13.936;2023-04-22T05:57:53;99864.44;;;9.79;100.00
28310;BME280;15571;50.974;13.936;2023-04-22T06:01:07;99860.84;;;9.88;100.00
28310;BME280;15571;50.974;13.936;2023-04-22T06:04:35;99867.72;;;10.00;100.00
28310;BME280;15571;50.974;13.936;2023-04-22T06:07:50;99871.13;;;10.10;100.00
28310;BME280;15571;50.974;13.936;2023-04-22T06:11:08;99865.84;;;10.18;100.00
28310;BME280;15571;50.974;13.936;2023-04-22T06:14:15;99866.56;;;10.29;100.00
28310;BME280;15571;50.974;13.936;2023-04-22T06:17:24;99870.00;;;10.39;100.00
28310;BME280;15571;50.974;13.936;2023-04-22T06:20:31;99863.81;;;10.46;100.00
28310;BME280;15571;50.974;13.936;2023-04-22T06:23:46;99856.75;;;10.56;100.00
28310;BME280;15571;50.974;13.936;2023-04-22T06:26:51;99866.25;;;10.63;100.00
28310;BME280;15571;50.974;13.936;2023-04-22T06:29:57;99868.78;;;10.71;100.00
28310;BME280;15571;50.974;13.936;2023-04-22T06:33:02;99869.56;;;10.78;100.00
28310;BME280;15571;50.974;13.936;2023-04-22T06:36:10;99864.25;;;10.87;100.00
28310;BME280;15571;50.974;13.936;2023-04-22T06:39:18;99860.63;;;10.96;100.00
28310;BME280;15571;50.974;13.936;2023-04-22T06:42:47;99856.06;;;11.09;100.00
28310;BME280;15571;50.974;13.936;2023-04-22T06:45:57;99862.03;;;11.20;100.00
28310;BME280;15571;50.974;13.936;2023-04-22T06:49:32;99860.13;;;11.31;100.00
28310;BME280;15571;50.974;13.936;2023-04-22T06:53:00;99858.19;;;11.46;100.00
28310;BME280;15571;50.974;13.936;2023-04-22T06:56:06;99856.25;;;11.57;100.00
28310;BME280;15571;50.974;13.936;2023-04-22T06:59:12;99863.09;;;11.67;100.00
28310;BME280;15571;50.974;13.936;2023-04-22T07:02:14;99868.19;;;11.77;100.00
28310;BME280;15571;50.974;13.936;2023-04-22T07:05:18;99867.16;;;11.87;100.00
28310;BME280;15571;50.974;13.936;2023-04-22T07:08:25;99861.78;;;11.98;100.00
28310;BME280;15571;50.974;13.936;2023-04-22T07:15:07;99855.25;;;12.19;100.00
28310;BME280;15571;50.974;13.936;2023-04-22T07:19:02;99861.09;;;12.35;100.00
28310;BME280;15571;50.974;13.936;2023-04-22T07:22:09;99844.38;;;12.41;100.00
28310;BME280;15571;50.974;13.936;2023-04-22T07:25:14;99848.53;;;12.53;100.00
28310;BME280;15571;50.974;13.936;2023-04-22T07:28:20;99848.38;;;12.60;100.00
28310;BME280;15571;50.974;13.936;2023-04-22T07:31:28;99851.66;;;12.70;100.00
28310;BME280;15571;50.974;13.936;2023-04-22T07:34:31;99855.00;;;12.79;100.00
28310;BME280;15571;50.974;13.936;2023-04-22T07:37:36;99856.69;;;12.83;100.00
28310;BME280;15571;50.974;13.936;2023-04-22T07:40:40;99855.69;;;12.88;100.00
28310;BME280;15571;50.974;13.936;2023-04-22T07:43:44;99852.00;;;12.97;100.00
28310;BME280;15571;50.974;13.936;2023-04-22T07:46:50;99843.94;;;13.06;100.00
28310;BME280;15571;50.974;13.936;2023-04-22T07:49:54;99842.00;;;13.15;100.00
28310;BME280;15571;50.974;13.936;2023-04-22T07:52:59;99838.16;;;13.28;100.00
28310;BME280;15571;50.974;13.936;2023-04-22T07:56:04;99844.09;;;13.38;100.00
28310;BME280;15571;50.974;13.936;2023-04-22T07:59:07;99834.41;;;13.42;100.00
28310;BME280;15571;50.974;13.936;2023-04-22T08:02:12;99829.94;;;13.45;100.00
28310;BME280;15571;50.974;13.936;2023-04-22T08:05:23;99830.47;;;13.60;100.00
28310;BME280;15571;50.974;13.936;2023-04-22T08:08:31;99829.25;;;13.75;100.00
28310;BME280;15571;50.974;13.936;2023-04-22T08:11:40;99829.91;;;13.83;100.00
28310;BME280;15571;50.974;13.936;2023-04-22T08:14:47;99823.63;;;13.89;100.00
28310;BME280;15571;50.974;13.936;2023-04-22T08:17:53;99824.34;;;13.94;100.00
28310;BME280;15571;50.974;13.936;2023-04-22T08:20:55;99827.88;;;13.94;100.00
28310;BME280;15571;50.974;13.936;2023-04-22T08:23:58;99832.84;;;14.05;100.00
28310;BME280;15571;50.974;13.936;2023-04-22T08:27:03;99831.75;;;14.12;100.00
28310;BME280;15571;50.974;13.936;2023-04-22T08:30:06;99827.97;;;14.23;100.00
28310;BME280;15571;50.974;13.936;2023-04-22T08:33:11;99816.44;;;14.28;100.00
28310;BME280;15571;50.974;13.936;2023-04-22T08:36:15;99822.22;;;14.41;100.00
28310;BME280;15571;50.974;13.936;2023-04-22T08:39:19;99817.56;;;14.51;100.00
28310;BME280;15571;50.974;13.936;2023-04-22T08:42:23;99819.13;;;14.58;100.00
28310;BME280;15571;50.974;13.936;2023-04-22T08:45:32;99821.53;;;14.66;100.00
28310;BME280;15571;50.974;13.936;2023-04-22T08:48:37;99814.38;;;14.71;100.00
28310;BME280;15571;50.974;13.936;2023-04-22T08:51:45;99823.25;;;14.69;100.00
28310;BME280;15571;50.974;13.936;2023-04-22T08:54:51;99816.81;;;14.79;100.00
28310;BME280;15571;50.974;13.936;2023-04-22T08:57:56;99821.03;;;14.85;100.00
28310;BME280;15571;50.974;13.936;2023-04-22T09:01:06;99808.41;;;14.96;100.00
28310;BME280;15571;50.974;13.936;2023-04-22T09:04:12;99806.53;;;15.00;100.00
28310;BME280;15571;50.974;13.936;2023-04-22T09:07:17;99808.88;;;15.09;100.00
28310;BME280;15571;50.974;13.936;2023-04-22T09:10:25;99813.81;;;15.20;96.82
28310;BME280;15571;50.974;13.936;2023-04-22T09:13:28;99809.06;;;15.31;96.81
28310;BME280;15571;50.974;13.936;2023-04-22T09:16:31;99807.03;;;15.39;89.67
28310;BME280;15571;50.974;13.936;2023-04-22T09:19:43;99805.97;;;15.47;92.85
28310;BME280;15571;50.974;13.936;2023-04-22T09:22:51;99796.31;;;15.46;91.96
28310;BME280;15571;50.974;13.936;2023-04-22T09:26:06;99797.91;;;15.50;91.33
28310;BME280;15571;50.974;13.936;2023-04-22T15:58:33;99487.91;;;19.18;55.68
28310;BME280;15571;50.974;13.936;2023-04-22T16:01:36;99478.25;;;19.17;56.97
28310;BME280;15571;50.974;13.936;2023-04-22T16:04:41;99487.22;;;19.15;57.55
28310;BME280;15571;50.974;13.936;2023-04-22T16:07:50;99478.44;;;19.14;57.19
28310;BME280;15571;50.974;13.936;2023-04-22T16:11:01;99476.63;;;19.15;57.11
28310;BME280;15571;50.974;13.936;2023-04-22T16:14:08;99476.03;;;19.09;57.86
28310;BME280;15571;50.974;13.936;2023-04-22T16:17:12;99472.75;;;19.04;59.40
28310;BME280;15571;50.974;13.936;2023-04-22T16:20:18;99462.47;;;18.98;59.66
28310;BME280;15571;50.974;13.936;2023-04-22T16:23:22;99461.78;;;18.94;60.43
28310;BME280;15571;50.974;13.936;2023-04-22T16:26:25;99452.31;;;18.89;61.65
28310;BME280;15571;50.974;13.936;2023-04-22T16:29:33;99456.13;;;18.83;61.42
28310;BME280;15571;50.974;13.936;2023-04-22T16:32:38;99457.91;;;18.82;62.28
28310;BME280;15571;50.974;13.936;2023-04-22T16:35:42;99462.38;;;18.82;61.16
28310;BME280;15571;50.974;13.936;2023-04-22T16:38:47;99446.56;;;18.80;62.00
28310;BME280;15571;50.974;13.936;2023-04-22T16:41:56;99443.28;;;18.75;62.42
28310;BME280;15571;50.974;13.936;2023-04-22T16:45:07;99432.91;;;18.71;63.42
28310;BME280;15571;50.974;13.936;2023-04-22T16:48:25;99437.50;;;18.67;63.93
28310;BME280;15571;50.974;13.936;2023-04-22T16:51:29;99432.38;;;18.64;65.07
28310;BME280;15571;50.974;13.936;2023-04-22T16:54:35;99430.81;;;18.60;65.87
28310;BME280;15571;50.974;13.936;2023-04-22T16:57:46;99424.81;;;18.56;66.75
28310;BME280;15571;50.974;13.936;2023-04-22T17:01:01;99424.09;;;18.52;67.35
28310;BME280;15571;50.974;13.936;2023-04-22T17:04:18;99433.16;;;18.48;67.86
28310;BME280;15571;50.974;13.936;2023-04-22T17:07:28;99426.28;;;18.44;68.41
28310;BME280;15571;50.974;13.936;2023-04-22T17:10:41;99419.28;;;18.43;69.00
28310;BME280;15571;50.974;13.936;2023-04-22T17:13:49;99425.34;;;18.45;69.41
28310;BME280;15571;50.974;13.936;2023-04-22T17:16:57;99422.84;;;18.42;69.62
28310;BME280;15571;50.974;13.936;2023-04-22T17:20:04;99421.16;;;18.41;69.99
28310;BME280;15571;50.974;13.936;2023-04-22T17:23:11;99419.44;;;18.40;70.84
28310;BME280;15571;50.974;13.936;2023-04-22T17:26:18;99417.72;;;18.39;71.28
28310;BME280;15571;50.974;13.936;2023-04-22T17:29:28;99424.06;;;18.37;72.16
28310;BME280;15571;50.974;13.936;2023-04-22T17:32:39;99415.38;;;18.33;72.42
28310;BME280;15571;50.974;13.936;2023-04-22T17:35:46;99423.50;;;18.30;72.90
28310;BME280;15571;50.974;13.936;2023-04-22T17:39:00;99421.00;;;18.27;73.86
28310;BME280;15571;50.974;13.936;2023-04-22T17:42:06;99428.31;;;18.22;74.39
28310;BME280;15571;50.974;13.936;2023-04-22T17:45:19;99418.03;;;18.15;75.88
28310;BME280;15571;50.974;13.936;2023-04-22T17:48:23;99416.63;;;18.08;76.54
28310;BME280;15571;50.974;13.936;2023-04-22T17:51:29;99424.88;;;18.02;77.53
28310;BME280;15571;50.974;13.936;2023-04-22T17:54:44;99422.47;;;17.96;78.41
28310;BME280;15571;50.974;13.936;2023-04-22T17:57:55;99427.28;;;17.87;79.08
28310;BME280;15571;50.974;13.936;2023-04-22T18:01:19;99425.88;;;17.80;80.05
28310;BME280;15571;50.974;13.936;2023-04-22T18:04:26;99422.75;;;17.72;81.91
28310;BME280;15571;50.974;13.936;2023-04-22T18:07:39;99427.53;;;17.64;87.21
28310;BME280;15571;50.974;13.936;2023-04-22T18:10:49;99429.56;;;17.58;88.65
28310;BME280;15571;50.974;13.936;2023-04-22T18:13:55;99435.91;;;17.54;88.95
28310;BME280;15571;50.974;13.936;2023-04-22T18:17:09;99441.50;;;17.48;90.21
28310;BME280;15571;50.974;13.936;2023-04-22T18:20:22;99435.72;;;17.40;91.14
28310;BME280;15571;50.974;13.936;2023-04-22T18:23:28;99437.78;;;17.33;93.30
28310;BME280;15571;50.974;13.936;2023-04-22T18:26:37;99447.94;;;17.23;95.27
28310;BME280;15571;50.974;13.936;2023-04-22T18:33:20;99440.81;;;17.05;98.60
28310;BME280;15571;50.974;13.936;2023-04-22T18:36:38;99447.44;;;16.94;100.00
28310;BME280;15571;50.974;13.936;2023-04-22T18:39:43;99449.69;;;16.83;100.00
28310;BME280;15571;50.974;13.936;2023-04-22T18:42:54;99454.47;;;16.73;100.00
28310;BME280;15571;50.974;13.936;2023-04-22T18:46:01;99458.22;;;16.69;100.00
28310;BME280;15571;50.974;13.936;2023-04-22T18:49:05;99464.59;;;16.63;100.00
28310;BME280;15571;50.974;13.936;2023-04-22T18:55:47;99466.03;;;16.50;100.00
28310;BME280;15571;50.974;13.936;2023-04-22T18:58:56;99462.88;;;16.42;100.00
28310;BME280;15571;50.974;13.936;2023-04-22T19:01:59;99463.06;;;16.37;100.00
28310;BME280;15571;50.974;13.936;2023-04-22T19:05:05;99466.13;;;16.26;100.00
28310;BME280;15571;50.974;13.936;2023-04-22T19:08:16;99470.75;;;16.21;100.00
28310;BME280;15571;50.974;13.936;2023-04-22T19:11:23;99473.78;;;16.12;100.00
28310;BME280;15571;50.974;13.936;2023-04-22T19:14:28;99472.31;;;16.05;100.00
28310;BME280;15571;50.974;13.936;2023-04-22T19:17:33;99470.81;;;15.97;100.00
28310;BME280;15571;50.974;13.936;2023-04-22T19:20:41;99475.50;;;15.91;100.00
28310;BME280;15571;50.974;13.936;2023-04-22T19:23:51;99467.91;;;15.81;100.00
28310;BME280;15571;50.974;13.936;2023-04-22T19:27:00;99468.19;;;15.74;100.00
28310;BME280;15571;50.974;13.936;2023-04-22T19:30:13;99472.00;;;15.66;100.00
28310;BME280;15571;50.974;13.936;2023-04-22T19:33:24;99474.06;;;15.58;100.00
28310;BME280;15571;50.974;13.936;2023-04-22T19:36:29;99470.63;;;15.56;100.00
28310;BME280;15571;50.974;13.936;2023-04-22T19:39:34;99468.91;;;15.55;100.00
28310;BME280;15571;50.974;13.936;2023-04-22T19:42:41;99464.66;;;15.51;100.00
28310;BME280;15571;50.974;13.936;2023-04-22T19:45:46;99465.56;;;15.50;100.00
28310;BME280;15571;50.974;13.936;2023-04-22T19:48:53;99459.56;;;15.46;100.00
28310;BME280;15571;50.974;13.936;2023-04-22T19:52:01;99462.28;;;15.45;100.00
28310;BME280;15571;50.974;13.936;2023-04-22T19:55:10;99461.56;;;15.39;100.00
28310;BME280;15571;50.974;13.936;2023-04-22T19:58:18;99452.28;;;15.29;100.00
28310;BME280;15571;50.974;13.936;2023-04-22T20:01:23;99450.91;;;15.19;100.00
28310;BME280;15571;50.974;13.936;2023-04-22T20:04:33;99456.31;;;15.16;100.00
28310;BME280;15571;50.974;13.936;2023-04-22T20:07:35;99452.94;;;15.12;100.00
28310;BME280;15571;50.974;13.936;2023-04-22T20:10:43;99446.09;;;15.06;100.00
28310;BME280;15571;50.974;13.936;2023-04-22T20:13:55;99450.50;;;15.06;100.00
28310;BME280;15571;50.974;13.936;2023-04-22T20:17:00;99443.63;;;15.02;100.00
28310;BME280;15571;50.974;13.936;2023-04-22T20:20:12;99442.88;;;14.98;100.00
28310;BME280;15571;50.974;13.936;2023-04-22T20:23:18;99437.72;;;14.95;100.00
28310;BME280;15571;50.974;13.936;2023-04-22T20:26:36;99438.63;;;14.94;100.00
28310;BME280;15571;50.974;13.936;2023-04-22T20:34:04;99436.09;;;14.91;100.00
28310;BME280;15571;50.974;13.936;2023-04-22T20:37:09;99431.91;;;14.85;100.00
28310;BME280;15571;50.974;13.936;2023-04-22T20:40:14;99431.28;;;14.78;100.00
28310;BME280;15571;50.974;13.936;2023-04-22T23:52:47;99357.34;;;14.07;100.00
28310;BME280;15571;50.974;13.936;2023-04-22T23:55:51;99354.72;;;14.07;100.00
28310;BME280;15571;50.974;13.936;2023-04-22T23:58:54;99353.81;;;14.07;100.00
